Time;durP1;ratioP1;P1;durP2;ratioP2;P2;SDS_P1;SDS_P2;PMS_P1;PMS_P2;Temp;Humidity;BMP_temperature;BMP_pressure;BME280_temperature;BME280_humidity;BME280_pressure;Samples;Min_cycle;Max_cycle;Signal;HPM_P1;HPM_P2
2022/06/12 00:01:12;;;;;;;10.60;6.15;;;16.30;93.90;;;;;;4937036;28;88716;-72
2022/06/12 00:03:39;;;;;;;8.68;5.22;;;16.30;93.90;;;;;;4937665;28;88294;-72
2022/06/12 00:06:06;;;;;;;9.45;5.30;;;16.20;93.80;;;;;;4938540;28;88930;-72
2022/06/12 00:08:36;;;;;;;12.98;6.80;;;16.20;93.90;;;;;;4938832;28;88642;-72
2022/06/12 00:11:09;;;;;;;10.77;5.17;;;16.20;94.00;;;;;;4937110;28;88583;-71
2022/06/12 00:13:41;;;;;;;11.57;6.22;;;16.20;94.10;;;;;;4937613;28;88380;-72
2022/06/12 00:16:10;;;;;;;9.27;4.93;;;16.20;94.20;;;;;;4937452;28;88791;-72
2022/06/12 00:18:38;;;;;;;13.00;6.30;;;16.10;94.30;;;;;;4939032;28;88684;-72
2022/06/12 00:21:10;;;;;;;11.20;5.43;;;16.10;94.50;;;;;;4921225;28;89349;-72
2022/06/12 00:23:37;;;;;;;13.35;5.63;;;16.00;94.60;;;;;;4937223;28;91112;-72
2022/06/12 00:26:05;;;;;;;13.40;6.95;;;16.00;94.70;;;;;;4936496;28;99971;-72
2022/06/12 00:28:32;;;;;;;13.65;6.30;;;16.00;94.80;;;;;;4937137;28;91871;-72
2022/06/12 00:30:59;;;;;;;8.98;5.45;;;15.90;94.80;;;;;;4921179;28;89356;-72
2022/06/12 00:33:26;;;;;;;13.02;5.63;;;15.90;95.00;;;;;;4936811;28;91104;-72
2022/06/12 00:35:53;;;;;;;12.93;5.75;;;15.80;95.00;;;;;;4939036;28;91274;-72
2022/06/12 00:38:20;;;;;;;10.55;5.35;;;15.80;95.10;;;;;;4941665;28;88693;-72
2022/06/12 00:40:47;;;;;;;13.23;6.13;;;15.80;95.10;;;;;;4940429;28;89251;-72
2022/06/12 00:43:15;;;;;;;15.40;5.35;;;15.80;95.20;;;;;;4941989;28;87368;-71
2022/06/12 00:45:54;;;;;;;12.43;6.05;;;15.70;95.20;;;;;;4941637;28;90869;-72
2022/06/12 00:48:25;;;;;;;11.43;6.63;;;15.80;95.30;;;;;;4940385;28;88477;-72
2022/06/12 00:51:07;;;;;;;11.35;6.53;;;15.70;95.60;;;;;;4940314;28;88703;-72
2022/06/12 00:53:49;;;;;;;11.93;6.00;;;15.60;95.30;;;;;;4941716;28;88689;-72
2022/06/12 00:56:21;;;;;;;13.18;5.80;;;15.60;95.50;;;;;;4940054;28;91368;-72
2022/06/12 00:58:56;;;;;;;11.60;5.63;;;15.60;95.50;;;;;;4941679;28;88571;-72
2022/06/12 01:01:40;;;;;;;10.13;6.43;;;15.60;95.60;;;;;;4940121;28;89466;-72
2022/06/12 01:06:58;;;;;;;12.93;5.10;;;15.40;95.70;;;;;;4940028;28;89893;-72
2022/06/12 01:09:30;;;;;;;13.10;5.68;;;15.40;95.80;;;;;;4940320;28;88712;-72
2022/06/12 01:12:00;;;;;;;9.20;5.60;;;15.40;95.80;;;;;;4941647;28;88009;-72
2022/06/12 01:14:30;;;;;;;12.88;5.38;;;15.40;95.80;;;;;;4941177;28;88465;-72
2022/06/12 01:16:59;;;;;;;8.30;4.35;;;15.40;95.80;;;;;;4939526;28;91545;-72
2022/06/12 01:19:47;;;;;;;16.45;5.82;;;15.30;95.70;;;;;;4941044;28;88247;-72
2022/06/12 01:22:18;;;;;;;12.07;4.57;;;15.40;95.80;;;;;;4941386;28;88458;-72
2022/06/12 01:24:45;;;;;;;11.80;4.05;;;15.30;95.80;;;;;;4941044;28;88364;-72
2022/06/12 01:27:23;;;;;;;10.10;5.10;;;15.30;95.70;;;;;;4939777;28;88923;-72
2022/06/12 01:30:06;;;;;;;9.13;5.28;;;15.30;95.60;;;;;;4939815;28;90088;-72
2022/06/12 01:32:45;;;;;;;12.20;4.18;;;15.30;95.60;;;;;;4939940;28;88589;-72
2022/06/12 01:35:27;;;;;;;11.25;4.32;;;15.20;95.60;;;;;;4941497;28;88935;-72
2022/06/12 01:38:12;;;;;;;9.52;4.18;;;15.20;95.60;;;;;;4941146;28;87993;-72
2022/06/12 01:41:08;;;;;;;6.80;3.90;;;15.20;95.50;;;;;;4939583;28;90007;-72
2022/06/12 01:43:44;;;;;;;9.45;4.25;;;15.20;95.60;;;;;;4940257;28;88642;-72
2022/06/12 01:46:22;;;;;;;11.98;4.35;;;15.20;95.70;;;;;;4940899;28;88148;-72
2022/06/12 01:49:07;;;;;;;7.60;4.00;;;15.20;95.70;;;;;;4940731;28;88519;-72
2022/06/12 01:51:45;;;;;;;9.98;3.67;;;15.20;95.70;;;;;;4939379;28;89663;-72
2022/06/12 01:54:22;;;;;;;9.57;4.25;;;15.10;95.70;;;;;;4940968;28;87933;-72
2022/06/12 01:57:13;;;;;;;8.90;3.60;;;15.10;95.80;;;;;;4940929;28;87938;-72
2022/06/12 01:59:54;;;;;;;8.65;3.97;;;15.10;95.80;;;;;;4940662;28;88845;-72
2022/06/12 02:02:46;;;;;;;11.25;4.15;;;15.00;95.90;;;;;;4940736;28;88518;-72
2022/06/12 02:05:19;;;;;;;7.45;3.55;;;15.00;95.80;;;;;;4940861;28;88543;-72
2022/06/12 02:07:55;;;;;;;;;;;15.00;95.90;;;;;;4939889;28;87978;-71
2022/06/12 02:10:48;;;;;;;8.32;3.65;;;14.80;95.80;;;;;;4939475;28;92151;-72
2022/06/12 02:13:27;;;;;;;9.05;4.20;;;14.80;96.00;;;;;;4938988;28;92567;-72
2022/06/12 02:16:03;;;;;;;10.32;4.95;;;14.80;96.00;;;;;;4940545;28;87924;-72
2022/06/12 02:18:51;;;;;;;12.27;4.47;;;14.80;96.00;;;;;;4940456;28;88282;-72
2022/06/12 02:21:34;;;;;;;6.63;3.20;;;14.90;95.90;;;;;;4939234;28;88697;-72
2022/06/12 02:24:16;;;;;;;10.55;4.57;;;14.90;96.00;;;;;;4938972;28;88089;-72
2022/06/12 02:26:57;;;;;;;11.73;3.78;;;14.80;96.00;;;;;;4940166;28;87879;-72
2022/06/12 02:29:31;;;;;;;13.15;5.32;;;14.80;96.00;;;;;;4940374;28;88384;-72
2022/06/12 02:31:59;;;;;;;;;;;14.80;96.10;;;;;;4940858;28;88041;-72
2022/06/12 02:34:31;;;;;;;7.75;3.03;;;14.60;95.90;;;;;;4939684;28;90655;-72
2022/06/12 02:37:03;;;;;;;8.57;5.13;;;14.70;96.10;;;;;;4939013;28;88817;-71
2022/06/12 02:39:39;;;;;;;9.10;4.00;;;14.70;96.00;;;;;;4938802;28;88442;-72
2022/06/12 02:42:14;;;;;;;10.20;5.03;;;14.70;96.00;;;;;;4938621;28;91232;-72
2022/06/12 02:45:11;;;;;;;7.70;4.32;;;14.70;95.90;;;;;;4938594;28;92205;-72
2022/06/12 02:47:41;;;;;;;10.82;3.90;;;14.80;95.90;;;;;;4938328;28;89587;-72
2022/06/12 02:50:10;;;;;;;9.30;4.15;;;14.70;95.80;;;;;;4938396;28;91119;-72
2022/06/12 02:53:08;;;;;;;6.85;3.70;;;14.70;95.80;;;;;;4938333;28;88884;-72
2022/06/12 02:56:08;;;;;;;10.05;4.47;;;14.70;95.70;;;;;;4936647;28;92266;-71
2022/06/12 02:58:54;;;;;;;9.75;5.30;;;14.70;95.70;;;;;;4938423;28;88452;-72
2022/06/12 03:01:31;;;;;;;8.45;3.80;;;14.70;95.70;;;;;;4922332;28;90960;-72
2022/06/12 03:04:12;;;;;;;10.15;3.80;;;14.70;95.70;;;;;;4939426;28;89751;-72
2022/06/12 03:06:40;;;;;;;7.78;3.80;;;14.70;95.70;;;;;;4937871;28;92397;-72
2022/06/12 03:09:07;;;;;;;6.53;3.53;;;14.70;95.40;;;;;;4938524;28;88238;-72
2022/06/12 03:11:38;;;;;;;8.93;3.90;;;14.70;95.70;;;;;;4938223;28;88301;-72
2022/06/12 03:14:08;;;;;;;9.00;4.07;;;14.70;95.60;;;;;;4939764;28;88765;-72
2022/06/12 03:16:39;;;;;;;9.35;5.22;;;14.70;95.60;;;;;;4939336;28;88485;-72
2022/06/12 03:19:20;;;;;;;12.50;5.30;;;14.70;95.70;;;;;;4938012;28;89432;-72
2022/06/12 03:22:14;;;;;;;12.63;4.13;;;14.70;95.50;;;;;;4938197;28;93161;-71
2022/06/12 03:25:02;;;;;;;12.07;4.28;;;14.70;95.50;;;;;;4938145;28;88034;-72
2022/06/12 03:28:12;;;;;;;10.40;5.18;;;14.70;95.50;;;;;;4939251;28;87975;-72
2022/06/12 03:30:46;;;;;;;10.65;4.03;;;14.70;95.60;;;;;;4926791;28;88787;-72
2022/06/12 03:33:15;;;;;;;8.10;3.60;;;14.60;95.60;;;;;;4937937;28;90932;-72
2022/06/12 03:35:53;;;;;;;7.30;4.38;;;14.70;95.60;;;;;;4938865;28;88891;-72
2022/06/12 03:38:23;;;;;;;8.88;4.32;;;14.70;95.50;;;;;;4937854;28;88645;-72
2022/06/12 03:41:09;;;;;;;10.57;4.20;;;14.70;95.60;;;;;;4937705;28;88022;-72
2022/06/12 03:43:54;;;;;;;7.82;3.97;;;14.70;95.60;;;;;;4937449;28;90877;-72
2022/06/12 03:46:33;;;;;;;11.05;4.75;;;14.80;95.50;;;;;;4939047;28;89625;-72
2022/06/12 03:49:07;;;;;;;7.10;3.53;;;14.80;95.60;;;;;;4939769;28;88385;-72
2022/06/12 03:51:37;;;;;;;8.95;4.97;;;14.90;95.60;;;;;;4939009;28;87924;-72
2022/06/12 03:54:10;;;;;;;8.50;3.58;;;14.90;95.90;;;;;;4939265;28;88382;-72
2022/06/12 03:59:38;;;;;;;8.30;4.85;;;15.60;94.80;;;;;;4937173;28;91955;-72
2022/06/12 04:02:08;;;;;;;9.40;5.07;;;16.00;94.20;;;;;;4937622;28;89535;-72
2022/06/12 04:04:38;;;;;;;8.20;4.55;;;16.40;93.60;;;;;;4937785;28;88472;-72
2022/06/12 04:07:09;;;;;;;8.38;3.80;;;16.50;93.20;;;;;;4937344;28;91275;-72
2022/06/12 04:09:41;;;;;;;9.45;3.55;;;16.70;92.90;;;;;;4938369;28;88715;-72
2022/06/12 04:12:15;;;;;;;11.45;3.88;;;16.60;92.80;;;;;;4937419;28;91796;-72
2022/06/12 04:14:53;;;;;;;11.38;3.75;;;16.60;92.80;;;;;;4937523;28;91007;-72
2022/06/12 04:17:22;;;;;;;8.32;4.68;;;16.50;92.80;;;;;;4938792;28;90920;-72
2022/06/12 04:19:59;;;;;;;5.63;3.05;;;16.50;92.90;;;;;;4938255;28;88690;-72
2022/06/12 04:23:07;;;;;;;9.50;4.85;;;16.50;92.90;;;;;;4938517;28;89290;-72
2022/06/12 04:26:03;;;;;;;6.50;3.45;;;16.60;92.90;;;;;;4926202;28;88129;-72
2022/06/12 04:28:37;;;;;;;8.00;3.60;;;16.50;93.00;;;;;;4936060;28;88868;-71
2022/06/12 04:31:13;;;;;;;8.88;4.30;;;16.50;93.00;;;;;;4938625;28;88718;-72
2022/06/12 04:33:51;;;;;;;8.20;4.43;;;16.50;92.80;;;;;;4937004;28;89919;-72
2022/06/12 04:36:18;;;;;;;6.13;2.70;;;16.50;92.90;;;;;;4938583;28;88170;-72
2022/06/12 04:38:45;;;;;;;8.60;5.05;;;16.50;92.90;;;;;;4938379;28;88499;-72
2022/06/12 04:41:23;;;;;;;7.57;3.40;;;16.50;92.90;;;;;;4937613;28;88660;-72
2022/06/12 04:43:50;;;;;;;8.02;3.92;;;16.60;92.90;;;;;;4937248;28;88044;-72
2022/06/12 04:46:19;;;;;;;6.15;3.53;;;16.50;93.00;;;;;;4938443;28;88831;-72
2022/06/12 04:48:49;;;;;;;8.65;3.67;;;16.50;93.00;;;;;;4937467;28;88731;-72
2022/06/12 04:51:17;;;;;;;9.88;4.80;;;16.60;93.10;;;;;;4938131;28;89562;-72
2022/06/12 04:53:45;;;;;;;7.10;3.65;;;16.60;93.10;;;;;;4938125;28;87929;-72
2022/06/12 04:56:14;;;;;;;8.57;3.70;;;16.60;93.10;;;;;;4938175;28;88380;-72
2022/06/12 04:58:43;;;;;;;10.68;3.70;;;16.60;93.10;;;;;;4937706;28;88873;-72
2022/06/12 05:01:11;;;;;;;7.90;3.85;;;16.60;93.10;;;;;;4936715;28;88822;-72
2022/06/12 05:03:38;;;;;;;10.45;3.40;;;16.80;93.10;;;;;;4938433;28;88526;-72
2022/06/12 05:06:06;;;;;;;8.23;3.65;;;16.80;93.00;;;;;;4938247;28;88447;-72
2022/06/12 05:08:34;;;;;;;7.65;3.58;;;16.90;93.00;;;;;;4936500;28;91334;-72
2022/06/12 05:11:01;;;;;;;5.32;3.00;;;17.10;92.90;;;;;;4937844;28;88562;-72
2022/06/12 05:13:28;;;;;;;5.80;3.88;;;17.20;92.90;;;;;;4937778;28;88734;-72
2022/06/12 05:15:56;;;;;;;6.22;3.20;;;17.30;92.90;;;;;;4936254;28;91130;-72
2022/06/12 05:18:23;;;;;;;6.57;4.93;;;17.40;93.10;;;;;;4936624;28;89669;-72
2022/06/12 05:20:50;;;;;;;5.03;3.50;;;17.40;92.90;;;;;;4920539;28;88599;-72
2022/06/12 05:23:19;;;;;;;8.82;3.70;;;17.60;92.90;;;;;;4938604;28;102667;-72
2022/06/12 05:25:46;;;;;;;7.70;3.47;;;17.70;93.00;;;;;;4939273;28;94885;-72
2022/06/12 05:28:15;;;;;;;6.82;3.35;;;17.90;92.80;;;;;;4940982;28;88908;-72
2022/06/12 05:30:43;;;;;;;8.77;4.28;;;18.00;92.60;;;;;;4941385;28;90238;-72
2022/06/12 05:33:11;;;;;;;9.90;4.15;;;18.20;92.50;;;;;;4939815;28;88082;-72
2022/06/12 05:35:39;;;;;;;9.95;3.70;;;18.30;92.30;;;;;;4941192;28;88523;-72
2022/06/12 05:38:08;;;;;;;8.43;3.00;;;18.40;92.20;;;;;;4939153;28;92035;-72
2022/06/12 05:40:38;;;;;;;9.00;4.35;;;18.50;92.10;;;;;;4940972;28;89682;-72
2022/06/12 05:43:06;;;;;;;9.20;3.10;;;18.60;92.00;;;;;;4939292;28;89379;-72
2022/06/12 05:45:33;;;;;;;9.90;4.43;;;18.80;91.80;;;;;;4939867;28;88903;-72
2022/06/12 05:48:09;;;;;;;9.73;3.28;;;18.90;91.70;;;;;;4939067;28;91303;-72
2022/06/12 05:50:46;;;;;;;8.93;3.00;;;19.10;91.60;;;;;;4940886;28;88567;-72
2022/06/12 05:53:14;;;;;;;8.18;3.40;;;19.20;91.60;;;;;;4940828;28;88018;-72
2022/06/12 05:55:41;;;;;;;7.88;4.00;;;19.30;91.50;;;;;;4940962;28;88067;-72
2022/06/12 05:58:08;;;;;;;7.07;2.92;;;19.40;91.50;;;;;;4940244;28;88899;-72
2022/06/12 06:00:36;;;;;;;7.90;2.85;;;19.50;91.50;;;;;;4939624;28;88456;-72
2022/06/12 06:03:03;;;;;;;7.80;4.03;;;19.60;91.40;;;;;;4938676;28;88848;-72
2022/06/12 06:05:30;;;;;;;12.00;4.05;;;19.70;91.40;;;;;;4939519;28;88296;-72
2022/06/12 06:07:57;;;;;;;9.57;3.30;;;20.00;91.20;;;;;;4938788;28;88736;-72
2022/06/12 06:10:26;;;;;;;10.15;3.92;;;20.30;90.80;;;;;;4939178;28;91167;-72
2022/06/12 06:12:54;;;;;;;6.25;3.60;;;20.60;90.50;;;;;;4938894;28;89607;-72
2022/06/12 06:15:22;;;;;;;10.07;4.97;;;20.80;90.30;;;;;;4940521;28;88402;-72
2022/06/12 06:17:50;;;;;;;14.93;4.43;;;20.90;90.10;;;;;;4938639;28;102752;-72
2022/06/12 06:20:23;;;;;;;13.70;5.18;;;20.90;89.80;;;;;;4940715;28;88526;-72
2022/06/12 06:22:51;;;;;;;12.25;4.00;;;21.10;89.50;;;;;;4939249;28;88033;-72
2022/06/12 06:25:19;;;;;;;13.18;5.88;;;21.00;89.20;;;;;;4939433;28;88403;-72
2022/06/12 06:27:46;;;;;;;10.45;4.43;;;20.90;89.50;;;;;;4939882;28;89285;-72
2022/06/12 06:30:20;;;;;;;11.02;3.80;;;20.90;89.80;;;;;;4938796;28;92122;-72
2022/06/12 06:32:47;;;;;;;14.07;4.80;;;20.90;90.30;;;;;;4940209;28;88005;-72
2022/06/12 06:35:14;;;;;;;11.15;3.55;;;20.90;90.00;;;;;;4938808;28;91413;-72
2022/06/12 06:37:42;;;;;;;11.68;3.47;;;21.00;90.00;;;;;;4938712;28;90585;-72
2022/06/12 06:40:11;;;;;;;15.35;5.32;;;21.10;90.00;;;;;;4939990;28;88719;-72
2022/06/12 06:42:39;;;;;;;13.40;3.72;;;21.30;90.00;;;;;;4938911;28;88133;-72
2022/06/12 06:47:53;;;;;;;15.80;4.30;;;21.40;89.60;;;;;;4940100;28;88803;-72
2022/06/12 06:50:21;;;;;;;11.77;4.28;;;21.50;89.30;;;;;;4938298;28;91857;-72
2022/06/12 06:52:49;;;;;;;13.73;4.72;;;21.60;88.90;;;;;;4938203;28;88692;-72
2022/06/12 06:55:17;;;;;;;10.95;4.00;;;21.70;88.90;;;;;;4939612;28;88523;-72
2022/06/12 06:57:46;;;;;;;11.88;5.10;;;21.60;88.90;;;;;;4939642;28;88868;-72
2022/06/12 07:00:21;;;;;;;11.35;4.25;;;21.60;88.90;;;;;;4938337;28;91348;-72
2022/06/12 07:02:48;;;;;;;11.80;5.22;;;21.50;89.30;;;;;;4939953;28;88574;-72
2022/06/12 07:05:16;;;;;;;12.18;3.75;;;21.40;89.70;;;;;;4937655;28;107086;-72
2022/06/12 07:07:43;;;;;;;12.75;4.68;;;21.40;90.10;;;;;;4938498;28;88777;-72
2022/06/12 07:10:16;;;;;;;14.70;4.28;;;21.40;90.10;;;;;;4922275;28;91454;-72
2022/06/12 07:12:43;;;;;;;12.17;5.43;;;21.40;90.20;;;;;;4939895;28;88469;-72
2022/06/12 07:15:12;;;;;;;15.63;5.13;;;21.40;90.20;;;;;;4939363;28;88332;-72
2022/06/12 07:17:40;;;;;;;15.40;4.95;;;21.40;90.20;;;;;;4937862;28;89694;-72
2022/06/12 07:20:09;;;;;;;13.35;5.10;;;21.30;90.20;;;;;;4939107;28;89434;-72
2022/06/12 07:22:36;;;;;;;15.07;4.32;;;21.40;90.10;;;;;;4938417;28;88682;-72
2022/06/12 07:25:03;;;;;;;12.75;4.35;;;21.40;90.30;;;;;;4937898;28;88415;-72
2022/06/12 07:27:30;;;;;;;12.98;5.35;;;21.40;90.20;;;;;;4939424;28;88910;-72
2022/06/12 07:29:58;;;;;;;16.58;4.60;;;21.40;90.30;;;;;;4939346;28;88686;-72
2022/06/12 07:32:26;;;;;;;14.60;5.63;;;21.40;90.30;;;;;;4939186;28;87961;-72
2022/06/12 07:34:53;;;;;;;11.27;3.80;;;21.50;90.30;;;;;;4938123;28;89371;-72
2022/06/12 07:37:21;;;;;;;18.55;4.80;;;21.50;90.50;;;;;;4939161;28;88837;-72
2022/06/12 07:39:48;;;;;;;14.15;5.43;;;21.60;90.10;;;;;;4939110;28;89164;-72
2022/06/12 07:42:16;;;;;;;14.75;4.80;;;21.70;90.10;;;;;;4936878;28;100754;-72
2022/06/12 07:44:43;;;;;;;10.02;4.30;;;21.70;90.00;;;;;;4937371;28;88588;-72
2022/06/12 07:47:10;;;;;;;13.15;5.82;;;21.90;89.90;;;;;;4937881;28;88874;-72
2022/06/12 07:49:42;;;;;;;14.95;4.18;;;22.10;89.40;;;;;;4938046;28;88683;-72
2022/06/12 07:52:13;;;;;;;12.48;5.65;;;22.10;88.60;;;;;;4938629;28;88028;-72
2022/06/12 07:58:00;;;;;;;13.75;5.32;;;22.40;88.60;;;;;;4938240;28;92293;-72
2022/06/12 08:00:41;;;;;;;12.20;5.82;;;22.40;88.60;;;;;;4938960;28;88536;-72
2022/06/12 08:03:11;;;;;;;17.98;6.18;;;22.50;88.40;;;;;;4938904;28;88013;-72
2022/06/12 08:05:44;;;;;;;9.95;4.35;;;22.60;87.90;;;;;;4921526;28;90887;-72
2022/06/12 08:08:13;;;;;;;10.20;4.07;;;23.20;87.70;;;;;;4938330;28;89532;-72
2022/06/12 08:10:41;;;;;;;11.65;3.53;;;24.10;85.70;;;;;;4939029;28;89100;-72
2022/06/12 08:13:18;;;;;;;7.93;5.22;;;25.30;82.50;;;;;;4937779;28;88446;-72
2022/06/12 08:15:49;;;;;;;10.25;5.13;;;26.70;79.20;;;;;;4937470;28;89451;-72
2022/06/12 08:18:18;;;;;;;10.73;4.97;;;28.00;75.00;;;;;;4937224;28;88689;-73
2022/06/12 08:20:49;;;;;;;9.13;4.82;;;29.30;71.40;;;;;;4938782;28;88785;-73
2022/06/12 08:23:39;;;;;;;12.45;5.25;;;30.30;67.30;;;;;;4938627;28;87937;-73
2022/06/12 08:26:10;;;;;;;6.07;3.10;;;31.30;62.10;;;;;;4937683;28;91038;-73
2022/06/12 08:28:40;;;;;;;8.43;4.78;;;31.90;61.20;;;;;;4938682;28;89968;-73
2022/06/12 08:31:11;;;;;;;8.23;4.80;;;32.70;58.20;;;;;;4937404;28;91293;-73
2022/06/12 08:33:40;;;;;;;8.88;5.18;;;33.40;56.40;;;;;;4938134;28;89003;-73
2022/06/12 08:36:10;;;;;;;6.82;3.65;;;34.20;53.90;;;;;;4938529;28;88423;-73
2022/06/12 08:38:38;;;;;;;7.00;3.53;;;34.80;50.60;;;;;;4937316;28;88896;-73
2022/06/12 08:41:12;;;;;;;9.75;2.80;;;35.20;48.50;;;;;;4937323;28;89141;-74
2022/06/12 08:43:57;;;;;;;7.13;3.70;;;35.70;46.50;;;;;;4937419;28;88163;-74
2022/06/12 08:46:36;;;;;;;7.72;3.72;;;35.90;45.00;;;;;;4937094;28;88043;-74
2022/06/12 08:49:10;;;;;;;7.88;4.68;;;36.00;44.50;;;;;;4937024;28;94640;-73
2022/06/12 08:51:51;;;;;;;6.28;3.10;;;35.90;44.30;;;;;;4938532;28;88664;-73
2022/06/12 08:54:30;;;;;;;7.18;3.08;;;36.00;42.90;;;;;;4938355;28;87977;-73
2022/06/12 08:57:14;;;;;;;5.97;3.42;;;36.00;41.20;;;;;;4938909;28;88394;-74
2022/06/12 09:00:19;;;;;;;6.72;4.65;;;36.00;41.70;;;;;;4939611;28;92236;-73
2022/06/12 09:02:47;;;;;;;5.90;3.05;;;36.00;42.30;;;;;;4919748;28;94361;-73
2022/06/12 09:05:20;;;;;;;7.47;4.30;;;35.90;42.30;;;;;;4932211;28;89569;-73
2022/06/12 09:07:52;;;;;;;7.53;3.45;;;36.00;41.50;;;;;;4941657;28;89466;-73
2022/06/12 09:10:59;;;;;;;7.60;3.25;;;35.80;41.80;;;;;;4940127;28;88918;-73
2022/06/12 09:13:58;;;;;;;6.63;2.72;;;35.90;41.70;;;;;;4939787;28;96222;-73
2022/06/12 09:17:01;;;;;;;7.95;3.20;;;35.30;42.40;;;;;;4939823;28;88408;-73
2022/06/12 09:19:49;;;;;;;7.07;3.75;;;34.70;42.80;;;;;;4941728;28;88446;-73
2022/06/12 09:22:16;;;;;;;7.20;3.00;;;34.00;43.50;;;;;;4939938;28;91439;-73
2022/06/12 09:25:02;;;;;;;6.03;2.40;;;33.30;44.10;;;;;;4941099;28;88690;-73
2022/06/12 09:27:36;;;;;;;6.05;2.63;;;32.90;44.40;;;;;;4940773;28;88782;-73
2022/06/12 09:30:09;;;;;;;6.05;3.08;;;32.40;45.40;;;;;;4939918;28;88373;-73
2022/06/12 09:32:55;;;;;;;7.20;3.47;;;32.10;45.60;;;;;;4941162;28;88907;-73
2022/06/12 09:35:44;;;;;;;8.23;3.22;;;31.60;46.80;;;;;;4939666;28;91187;-73
2022/06/12 09:38:37;;;;;;;6.03;2.67;;;31.20;47.30;;;;;;4941356;28;88084;-73
2022/06/12 09:41:10;;;;;;;8.93;2.55;;;31.00;46.90;;;;;;4941228;28;88459;-73
2022/06/12 09:43:40;;;;;;;;;;;30.70;47.80;;;;;;4941411;28;88722;-73
2022/06/12 09:46:28;;;;;;;9.23;3.05;;;30.20;48.20;;;;;;4942495;28;87557;-73
2022/06/12 09:49:02;;;;;;;5.55;2.88;;;29.90;49.00;;;;;;4939602;28;88082;-73
2022/06/12 09:51:37;;;;;;;9.32;4.00;;;29.60;50.20;;;;;;4939594;28;88580;-73
2022/06/12 09:54:20;;;;;;;10.85;4.15;;;29.50;51.20;;;;;;4939437;28;89501;-73
2022/06/12 09:57:10;;;;;;;9.07;3.53;;;29.40;51.40;;;;;;4940630;28;89445;-72
2022/06/12 09:59:43;;;;;;;7.47;3.33;;;29.40;52.30;;;;;;4938631;28;88051;-72
2022/06/12 10:02:18;;;;;;;10.50;4.32;;;29.30;52.60;;;;;;4939466;28;90898;-72
2022/06/12 10:04:58;;;;;;;7.28;2.83;;;29.40;53.00;;;;;;4940472;28;88763;-73
2022/06/12 10:07:40;;;;;;;13.52;3.80;;;29.50;53.70;;;;;;4939089;28;88501;-72
2022/06/12 10:10:30;;;;;;;9.10;2.83;;;29.50;53.20;;;;;;4940620;28;88000;-73
2022/06/12 10:13:04;;;;;;;7.00;3.03;;;29.40;53.20;;;;;;4939637;28;90914;-72
2022/06/12 10:15:36;;;;;;;7.93;3.58;;;29.20;52.70;;;;;;4939324;28;88695;-72
2022/06/12 10:18:16;;;;;;;6.60;2.53;;;29.10;52.80;;;;;;4922794;28;89820;-72
2022/06/12 10:20:54;;;;;;;8.98;3.45;;;29.20;52.60;;;;;;4938475;28;89528;-73
2022/06/12 10:23:22;;;;;;;6.60;3.15;;;29.20;52.00;;;;;;4940431;28;87986;-72
2022/06/12 10:25:54;;;;;;;7.20;2.90;;;29.10;52.70;;;;;;4940057;28;88758;-72
2022/06/12 10:28:32;;;;;;;7.25;3.03;;;29.20;51.80;;;;;;4939016;28;88612;-72
2022/06/12 10:31:20;;;;;;;5.88;2.58;;;29.30;52.40;;;;;;4938861;28;88599;-72
2022/06/12 10:33:50;;;;;;;9.18;2.40;;;29.30;52.80;;;;;;4938439;28;89235;-72
2022/06/12 10:36:27;;;;;;;3.50;2.10;;;29.40;51.10;;;;;;4939694;28;89019;-72
2022/06/12 10:39:17;;;;;;;6.68;2.70;;;29.50;48.70;;;;;;4940429;28;88669;-73
2022/06/12 10:42:06;;;;;;;4.50;2.58;;;29.50;48.90;;;;;;4938985;28;88031;-72
2022/06/12 10:44:39;;;;;;;3.88;2.20;;;29.30;48.40;;;;;;4938378;28;91228;-73
2022/06/12 10:47:18;;;;;;;;;;;29.30;49.80;;;;;;4939905;28;89558;-72
2022/06/12 10:49:46;;;;;;;6.72;2.25;;;29.10;49.70;;;;;;4941006;28;88846;-72
2022/06/12 10:52:19;;;;;;;7.85;3.45;;;29.00;50.40;;;;;;4940030;28;87926;-72
2022/06/12 10:54:51;;;;;;;7.43;2.25;;;28.90;50.40;;;;;;4940033;28;88536;-72
2022/06/12 10:57:36;;;;;;;3.25;2.13;;;28.80;50.70;;;;;;4938629;28;91525;-72
2022/06/12 11:00:14;;;;;;;7.03;4.38;;;28.80;50.10;;;;;;4938206;28;88577;-72
2022/06/12 11:03:00;;;;;;;5.43;2.95;;;28.40;49.70;;;;;;4939742;28;88053;-72
2022/06/12 11:05:39;;;;;;;6.68;3.38;;;28.20;50.70;;;;;;4938789;28;90786;-72
2022/06/12 11:08:29;;;;;;;6.28;2.90;;;28.20;51.70;;;;;;4939520;28;88825;-72
2022/06/12 11:11:37;;;;;;;6.57;2.75;;;28.10;51.40;;;;;;4939516;28;88666;-72
2022/06/12 11:14:22;;;;;;;6.22;2.75;;;28.00;50.80;;;;;;4928976;28;88818;-72
2022/06/12 11:17:04;;;;;;;7.03;3.75;;;27.90;51.20;;;;;;4937983;28;91025;-72
2022/06/12 11:19:46;;;;;;;4.87;2.27;;;28.00;51.60;;;;;;4921291;28;90335;-72
2022/06/12 11:22:33;;;;;;;6.20;2.72;;;28.10;52.70;;;;;;4939631;28;88643;-72
2022/06/12 11:25:09;;;;;;;4.63;1.73;;;28.20;51.20;;;;;;4938022;28;89298;-73
2022/06/12 11:28:30;;;;;;;4.53;2.10;;;28.10;49.90;;;;;;4938304;28;88374;-72
2022/06/12 11:31:16;;;;;;;5.03;2.05;;;28.00;49.80;;;;;;4901000;28;91466;-72
2022/06/12 11:33:46;;;;;;;5.15;1.95;;;27.80;47.80;;;;;;4937867;28;88652;-72
2022/06/12 11:36:40;;;;;;;3.00;1.73;;;27.60;48.90;;;;;;4939210;28;88136;-72
2022/06/12 11:39:31;;;;;;;3.90;2.00;;;27.60;49.10;;;;;;4939410;28;88290;-72
2022/06/12 11:42:09;;;;;;;3.50;2.33;;;27.50;48.80;;;;;;4938765;28;89538;-72
2022/06/12 11:44:36;;;;;;;4.00;1.92;;;27.40;48.90;;;;;;4938004;28;89440;-72
2022/06/12 11:47:33;;;;;;;3.38;2.40;;;27.30;48.50;;;;;;4939059;28;88024;-72
2022/06/12 11:50:05;;;;;;;2.90;1.92;;;27.20;48.60;;;;;;4923749;28;88236;-72
2022/06/12 11:53:24;;;;;;;9.02;2.15;;;27.10;48.20;;;;;;4939148;28;88826;-72
2022/06/12 11:56:03;;;;;;;5.63;2.72;;;27.00;48.10;;;;;;4929939;28;88846;-72
2022/06/12 11:58:42;;;;;;;4.05;1.77;;;26.90;48.60;;;;;;4938979;28;87989;-72
2022/06/12 12:01:10;;;;;;;4.35;2.85;;;26.70;48.20;;;;;;4939549;28;88301;-72
2022/06/12 12:03:56;;;;;;;5.93;1.90;;;26.60;48.90;;;;;;4938747;28;88873;-72
2022/06/12 12:06:43;;;;;;;7.10;1.83;;;26.50;48.80;;;;;;4938549;28;88711;-72
2022/06/12 12:09:33;;;;;;;3.13;1.80;;;26.50;49.40;;;;;;4938748;28;89135;-72
2022/06/12 12:12:05;;;;;;;3.85;1.88;;;26.60;49.20;;;;;;4938870;28;88946;-72
2022/06/12 12:14:40;;;;;;;2.72;1.58;;;26.70;48.20;;;;;;4938869;28;88856;-72
2022/06/12 12:17:12;;;;;;;2.60;1.23;;;26.80;47.30;;;;;;4933994;28;91255;-72
2022/06/12 12:19:49;;;;;;;3.97;2.17;;;26.70;46.30;;;;;;4928935;28;89570;-72
2022/06/12 12:22:47;;;;;;;3.80;2.20;;;26.70;46.50;;;;;;4939007;28;88471;-72
2022/06/12 12:25:41;;;;;;;3.25;1.52;;;26.70;46.80;;;;;;4936812;28;88760;-72
2022/06/12 12:28:20;;;;;;;2.60;2.05;;;26.80;46.80;;;;;;4939011;28;88662;-72
2022/06/12 12:30:53;;;;;;;3.25;2.70;;;27.00;46.20;;;;;;4939298;28;88095;-72
2022/06/12 12:33:20;;;;;;;3.88;1.73;;;27.00;46.70;;;;;;4942198;28;88382;-72
2022/06/12 12:41:59;;;;;;;3.85;1.83;;;27.40;47.30;;;;;;4942419;28;88404;-72
2022/06/12 12:44:35;;;;;;;2.95;2.47;;;27.50;46.80;;;;;;4929150;28;91092;-72
2022/06/12 12:47:15;;;;;;;4.70;1.80;;;27.40;46.10;;;;;;4941924;28;88904;-72
2022/06/12 12:49:42;;;;;;;5.40;1.60;;;27.30;45.80;;;;;;4941939;28;88539;-72
2022/06/12 12:52:16;;;;;;;4.50;2.03;;;27.10;46.80;;;;;;4923807;28;89596;-72
2022/06/12 12:55:00;;;;;;;4.28;1.92;;;26.90;47.40;;;;;;4941130;28;88540;-72
2022/06/12 12:57:40;;;;;;;5.40;2.50;;;26.80;46.90;;;;;;4941602;28;88753;-72
2022/06/12 13:00:19;;;;;;;3.85;2.60;;;26.70;47.40;;;;;;4939895;28;90463;-72
2022/06/12 13:02:59;;;;;;;5.60;3.30;;;26.60;47.90;;;;;;4940350;28;88778;-72
2022/06/12 13:05:37;;;;;;;4.03;2.25;;;26.50;48.40;;;;;;4940490;28;88350;-72
2022/06/12 13:08:25;;;;;;;6.50;2.60;;;26.50;49.00;;;;;;4940068;28;91417;-72
2022/06/12 13:11:28;;;;;;;4.25;2.72;;;26.50;47.90;;;;;;4939455;28;91426;-72
2022/06/12 13:14:17;;;;;;;7.57;2.13;;;26.60;48.20;;;;;;4941392;28;88025;-72
2022/06/12 13:17:15;;;;;;;7.50;2.85;;;26.70;49.00;;;;;;4941604;28;88380;-72
2022/06/12 13:20:03;;;;;;;6.72;2.63;;;26.60;49.60;;;;;;4940943;28;88903;-72
2022/06/12 13:22:54;;;;;;;4.72;1.92;;;26.60;50.20;;;;;;4941403;28;88581;-72
2022/06/12 13:25:33;;;;;;;5.35;2.50;;;26.60;50.40;;;;;;4939777;28;88063;-72
2022/06/12 13:28:00;;;;;;;6.68;2.30;;;26.50;50.30;;;;;;4940895;28;88043;-72
2022/06/12 13:30:34;;;;;;;6.25;3.33;;;26.50;51.60;;;;;;4940878;28;89483;-72
2022/06/12 13:33:25;;;;;;;5.10;3.15;;;26.40;51.00;;;;;;4940123;28;89378;-72
2022/06/12 13:35:57;;;;;;;5.55;3.70;;;26.50;51.30;;;;;;4941297;28;88088;-72
2022/06/12 13:38:28;;;;;;;7.18;3.40;;;26.10;51.60;;;;;;4939897;28;88654;-72
2022/06/12 13:41:03;;;;;;;7.88;2.25;;;25.90;52.00;;;;;;4939995;28;88928;-72
2022/06/12 13:43:41;;;;;;;7.85;3.63;;;25.90;52.50;;;;;;4940429;28;88863;-72
2022/06/12 13:46:30;;;;;;;8.40;3.65;;;26.00;53.00;;;;;;4940806;28;88818;-72
2022/06/12 13:49:00;;;;;;;21.70;12.55;;;26.10;52.80;;;;;;4940007;28;90899;-72